createdAt,value
2019-03-15T00:04:09.559Z,7.44
2019-03-15T00:09:29.028Z,7.45
2019-03-15T00:12:15.657Z,7.44
2019-03-15T00:14:43.306Z,7.40
2019-03-15T00:17:13.070Z,7.40
2019-03-15T00:19:40.846Z,7.37
2019-03-15T00:22:27.263Z,7.36
2019-03-15T00:24:55.020Z,7.35
2019-03-15T00:27:37.147Z,7.35
2019-03-15T00:29:54.325Z,7.37
2019-03-15T00:32:22.100Z,7.36
2019-03-15T00:35:09.596Z,7.35
2019-03-15T00:37:59.075Z,7.36
2019-03-15T00:40:38.728Z,7.36
2019-03-15T00:43:15.091Z,7.40
2019-03-15T00:45:43.118Z,7.39
2019-03-15T00:48:29.520Z,7.37
2019-03-15T00:51:15.878Z,7.37
2019-03-15T00:54:02.314Z,7.37
2019-03-15T00:56:29.890Z,7.34
2019-03-15T00:58:57.519Z,7.34
2019-03-15T01:01:43.963Z,7.29
2019-03-15T01:04:30.396Z,7.23
2019-03-15T01:07:16.797Z,7.24
2019-03-15T01:12:36.340Z,7.20
2019-03-15T01:15:03.971Z,7.19
2019-03-15T01:17:50.701Z,7.18
2019-03-15T01:20:18.735Z,7.18
2019-03-15T01:25:39.604Z,7.23
2019-03-15T01:28:07.321Z,7.28
2019-03-15T01:30:35.162Z,7.28
2019-03-15T01:33:21.526Z,7.31
2019-03-15T01:35:49.252Z,7.40
2019-03-15T01:38:17.020Z,7.40
2019-03-15T01:41:04.275Z,7.42
2019-03-15T01:43:32.727Z,7.45
2019-03-15T01:46:19.410Z,7.46
2019-03-15T01:48:47.188Z,7.46
2019-03-15T01:51:35.934Z,7.49
2019-03-15T01:54:03.607Z,7.49
2019-03-15T01:59:06.993Z,7.52
2019-03-15T02:01:34.571Z,7.53
2019-03-15T02:06:38.473Z,7.49
2019-03-15T02:09:09.044Z,7.42
2019-03-15T02:11:35.511Z,7.42
2019-03-15T02:14:21.942Z,7.33
2019-03-15T02:16:49.732Z,7.33
2019-03-15T02:22:08.770Z,7.39
2019-03-15T02:24:36.381Z,7.40
2019-03-15T02:27:22.834Z,7.40
2019-03-15T02:30:09.304Z,7.46
2019-03-15T02:32:37.105Z,7.46
2019-03-15T02:35:23.385Z,7.48
2019-03-15T02:37:51.100Z,7.50
2019-03-15T02:40:18.762Z,7.52
2019-03-15T02:42:46.422Z,7.51
2019-03-15T02:45:14.142Z,7.51
2019-03-15T02:48:00.817Z,7.52
2019-03-15T02:50:29.386Z,7.52
2019-03-15T02:53:16.585Z,7.52
2019-03-15T02:55:44.251Z,7.56
2019-03-15T02:58:12.032Z,7.58
2019-03-15T03:00:58.480Z,7.59
2019-03-15T03:03:45.313Z,7.59
2019-03-15T03:06:14.639Z,7.59
2019-03-15T03:09:01.012Z,7.59
2019-03-15T03:11:29.315Z,7.59
2019-03-15T03:14:15.767Z,7.59
2019-03-15T03:17:02.217Z,7.58
2019-03-15T03:22:02.621Z,7.58
2019-03-15T03:24:30.221Z,7.54
2019-03-15T03:27:17.275Z,7.51
2019-03-15T03:30:04.946Z,7.50
2019-03-15T03:32:32.635Z,7.48
2019-03-15T03:35:19.071Z,7.47
2019-03-15T03:37:48.430Z,7.47
2019-03-15T03:40:19.773Z,7.45
2019-03-15T03:43:04.549Z,7.41
2019-03-15T03:45:50.919Z,7.40
2019-03-15T03:51:10.444Z,7.43
2019-03-15T03:53:38.611Z,7.43
2019-03-15T03:56:06.370Z,7.43
2019-03-15T03:58:34.026Z,7.42
2019-03-15T04:01:01.587Z,7.42
2019-03-15T04:03:29.354Z,7.41
2019-03-15T04:05:57.013Z,7.42
2019-03-15T04:08:24.677Z,7.40
2019-03-15T04:11:11.067Z,7.40
2019-03-15T04:13:57.519Z,7.36
2019-03-15T04:16:25.105Z,7.36
2019-03-15T04:19:11.440Z,7.33
2019-03-15T04:21:39.079Z,7.32
2019-03-15T04:24:06.771Z,7.32
2019-03-15T04:26:34.523Z,7.32
2019-03-15T04:29:02.581Z,7.32
2019-03-15T04:31:48.968Z,7.35
2019-03-15T04:34:16.661Z,7.34
2019-03-15T04:36:44.330Z,7.34
2019-03-15T04:42:05.092Z,7.38
2019-03-15T04:44:51.460Z,7.38
2019-03-15T04:47:38.280Z,7.40
2019-03-15T04:50:05.916Z,7.41
2019-03-15T04:52:52.351Z,7.45
2019-03-15T04:55:19.983Z,7.45
2019-03-15T04:57:47.670Z,7.46
2019-03-15T05:00:34.387Z,7.46
2019-03-15T05:03:02.019Z,7.46
2019-03-15T05:06:02.365Z,7.47
2019-03-15T05:08:21.811Z,7.47
2019-03-15T05:10:49.463Z,7.46
2019-03-15T05:13:17.125Z,7.39
2019-03-15T05:16:03.567Z,7.36
2019-03-15T05:21:09.301Z,7.34
2019-03-15T05:23:36.956Z,7.34
2019-03-15T05:26:05.043Z,7.33
2019-03-15T05:28:51.683Z,7.32
2019-03-15T05:36:35.047Z,7.32
2019-03-15T05:39:02.764Z,7.33
2019-03-15T05:41:49.191Z,7.35
2019-03-15T05:44:16.825Z,7.35
2019-03-15T05:46:44.723Z,7.39
2019-03-15T05:49:31.466Z,7.40
2019-03-15T05:51:59.271Z,7.42
2019-03-15T05:54:45.693Z,7.42
2019-03-15T05:57:13.443Z,7.40
2019-03-15T05:59:59.842Z,7.36
2019-03-15T06:05:20.684Z,7.29
2019-03-15T06:07:48.316Z,7.22
2019-03-15T06:10:34.786Z,7.15
2019-03-15T06:13:02.511Z,7.04
2019-03-15T06:18:35.322Z,7.01
2019-03-15T06:21:21.773Z,6.96
2019-03-15T06:23:51.271Z,6.91
2019-03-15T06:26:37.621Z,6.88
2019-03-15T06:29:05.291Z,6.88
2019-03-15T06:31:51.673Z,6.86
2019-03-15T06:34:19.719Z,6.85
2019-03-15T06:36:47.314Z,6.86
2019-03-15T06:39:17.420Z,6.86
2019-03-15T06:41:58.078Z,6.85
2019-03-15T06:44:27.549Z,6.88
2019-03-15T06:46:55.146Z,6.88
2019-03-15T06:49:22.723Z,6.89
2019-03-15T06:51:55.219Z,6.89
2019-03-15T06:54:22.838Z,6.89
2019-03-15T06:56:50.348Z,6.91
2019-03-15T06:59:18.259Z,6.93
2019-03-15T07:01:48.142Z,6.93
2019-03-15T07:04:17.287Z,6.97
2019-03-15T07:06:45.355Z,6.98
2019-03-15T07:09:13.176Z,7.01
2019-03-15T07:11:40.768Z,7.02
2019-03-15T07:14:08.737Z,7.06
2019-03-15T07:16:38.142Z,7.08
2019-03-15T07:19:05.640Z,7.09
2019-03-15T07:21:36.689Z,7.13
2019-03-15T07:24:03.602Z,7.15
2019-03-15T07:26:31.176Z,7.18
2019-03-15T07:28:59.586Z,7.18
2019-03-15T07:31:27.196Z,7.21
2019-03-15T07:33:54.924Z,7.25
2019-03-15T07:36:24.186Z,7.25
2019-03-15T07:38:51.806Z,7.29
2019-03-15T07:41:19.419Z,7.32
2019-03-15T07:43:47.505Z,7.35
2019-03-15T07:46:15.106Z,7.37
2019-03-15T07:48:42.749Z,7.41
2019-03-15T07:51:11.821Z,7.46
2019-03-15T07:53:39.716Z,7.50
2019-03-15T07:56:07.329Z,7.55
2019-03-15T07:58:35.395Z,7.58
2019-03-15T08:01:03.833Z,7.58
2019-03-15T08:03:32.260Z,7.61
2019-03-15T08:06:00.288Z,7.61
2019-03-15T08:08:28.360Z,7.64
2019-03-15T08:10:57.886Z,7.64
2019-03-15T08:13:25.776Z,7.64
2019-03-15T08:15:53.353Z,7.71
2019-03-15T08:18:21.009Z,7.73
2019-03-15T08:20:50.097Z,7.73
2019-03-15T08:23:17.713Z,7.81
2019-03-15T08:25:45.349Z,7.87
2019-03-15T08:28:13.311Z,7.90
2019-03-15T08:30:43.041Z,7.93
2019-03-15T08:33:11.250Z,7.93
2019-03-15T08:35:39.234Z,7.94
2019-03-15T08:38:07.057Z,7.91
2019-03-15T08:40:36.929Z,7.91
2019-03-15T08:43:04.905Z,7.90
2019-03-15T08:45:32.458Z,7.90
2019-03-15T08:48:00.114Z,7.90
2019-03-15T08:50:30.723Z,7.87
2019-03-15T08:52:58.411Z,7.86
2019-03-15T08:55:27.202Z,7.85
2019-03-15T08:57:55.181Z,7.84
2019-03-15T09:00:25.966Z,7.87
2019-03-15T09:02:53.608Z,7.87
2019-03-15T09:05:23.878Z,8.00
2019-03-15T09:07:52.790Z,8.00
2019-03-15T09:10:23.659Z,8.22
2019-03-15T09:12:50.388Z,8.22
2019-03-15T09:15:21.076Z,8.27
2019-03-15T09:17:48.626Z,8.34
2019-03-15T09:20:16.595Z,8.34
2019-03-15T09:22:50.092Z,8.50
2019-03-15T09:25:20.470Z,8.50
2019-03-15T09:27:47.388Z,8.65
2019-03-15T09:30:23.087Z,8.65
2019-03-15T09:32:44.228Z,8.71
2019-03-15T09:35:12.213Z,8.81
2019-03-15T09:37:40.204Z,8.87
2019-03-15T09:40:08.240Z,8.93
2019-03-15T09:42:35.874Z,9.02
2019-03-15T09:45:07.373Z,9.02
2019-03-15T09:47:33.556Z,9.18
2019-03-15T09:50:02.740Z,9.18
2019-03-15T09:52:33.168Z,9.25
2019-03-15T09:55:06.842Z,9.39
2019-03-15T09:57:34.601Z,9.44
2019-03-15T10:00:04.507Z,9.44
2019-03-15T10:02:32.422Z,9.50
2019-03-15T10:05:14.413Z,9.56
2019-03-15T10:07:47.763Z,9.59
2019-03-15T10:10:18.286Z,9.66
2019-03-15T10:12:44.746Z,9.70
2019-03-15T10:15:12.652Z,9.76
2019-03-15T10:17:40.280Z,9.76
2019-03-15T10:20:07.920Z,9.86
2019-03-15T10:22:35.814Z,9.90
2019-03-15T10:25:03.426Z,9.92
2019-03-15T10:27:30.997Z,9.93
2019-03-15T10:30:03.366Z,9.93
2019-03-15T10:32:29.356Z,9.93
2019-03-15T10:34:56.940Z,9.93
2019-03-15T10:37:24.881Z,9.95
2019-03-15T10:39:52.441Z,9.99
2019-03-15T10:42:20.069Z,10.02
2019-03-15T10:44:53.164Z,10.07
2019-03-15T10:47:24.015Z,10.13
2019-03-15T10:49:51.595Z,10.22
2019-03-15T10:52:22.283Z,10.22
2019-03-15T10:54:50.242Z,10.32
2019-03-15T10:57:17.885Z,10.37
2019-03-15T10:59:45.908Z,10.37
2019-03-15T11:02:13.614Z,10.42
2019-03-15T11:04:41.082Z,10.51
2019-03-15T11:07:08.995Z,10.54
2019-03-15T11:09:36.574Z,10.57
2019-03-15T11:12:04.228Z,10.57
2019-03-15T11:14:32.353Z,10.61
2019-03-15T11:17:02.054Z,10.71
2019-03-15T11:19:29.699Z,10.71
2019-03-15T11:22:00.106Z,10.82
2019-03-15T11:24:30.367Z,10.87
2019-03-15T11:26:58.358Z,10.87
2019-03-15T11:29:26.321Z,10.92
2019-03-15T11:31:54.384Z,11.00
2019-03-15T11:34:23.928Z,11.00
2019-03-15T11:36:58.364Z,11.07
2019-03-15T11:39:22.438Z,11.15
2019-03-15T11:41:55.855Z,11.22
2019-03-15T11:44:23.432Z,11.24
2019-03-15T11:46:51.055Z,11.27
2019-03-15T11:49:21.913Z,11.30
2019-03-15T11:51:52.076Z,11.30
2019-03-15T11:54:19.726Z,11.38
2019-03-15T11:56:51.735Z,11.38
2019-03-15T11:59:19.287Z,11.43
2019-03-15T12:02:03.177Z,11.49
2019-03-15T12:04:19.381Z,11.53
2019-03-15T12:06:53.253Z,11.53
2019-03-15T12:09:22.006Z,11.53
2019-03-15T12:11:50.649Z,11.57
2019-03-15T12:14:24.233Z,11.57
2019-03-15T12:16:52.151Z,11.60
2019-03-15T12:19:20.085Z,11.62
2019-03-15T12:21:47.714Z,11.63
2019-03-15T12:24:15.279Z,11.63
2019-03-15T12:26:43.253Z,11.65
2019-03-15T12:29:13.165Z,11.73
2019-03-15T12:31:40.719Z,11.73
2019-03-15T12:34:08.947Z,11.71
2019-03-15T12:36:36.545Z,11.68
2019-03-15T12:39:04.388Z,11.68
2019-03-15T12:41:36.336Z,11.64
2019-03-15T12:44:03.840Z,11.64
2019-03-15T12:46:33.099Z,11.64
2019-03-15T12:49:06.213Z,11.63
2019-03-15T12:51:34.553Z,11.63
2019-03-15T12:54:04.670Z,11.60
2019-03-15T12:56:32.625Z,11.59
2019-03-15T12:59:00.632Z,11.59
2019-03-15T13:01:38.155Z,11.59
2019-03-15T13:04:03.698Z,11.59
2019-03-15T13:06:31.796Z,11.58
2019-03-15T13:08:59.435Z,11.58
2019-03-15T13:11:31.559Z,11.60
2019-03-15T13:14:05.262Z,11.64
2019-03-15T13:16:33.235Z,11.76
2019-03-15T13:19:00.818Z,11.88
2019-03-15T13:21:28.545Z,11.89
2019-03-15T13:23:56.461Z,11.87
2019-03-15T13:26:24.062Z,11.91
2019-03-15T13:28:52.074Z,11.94
2019-03-15T13:31:20.070Z,12.06
2019-03-15T13:33:49.705Z,12.09
2019-03-15T13:36:17.307Z,12.13
2019-03-15T13:38:45.329Z,12.13
2019-03-15T13:41:16.566Z,12.19
2019-03-15T13:43:44.150Z,12.27
2019-03-15T13:46:12.213Z,12.31
2019-03-15T13:48:39.855Z,12.37
2019-03-15T13:51:07.406Z,12.37
2019-03-15T13:53:36.777Z,12.44
2019-03-15T13:56:04.419Z,12.47
2019-03-15T13:58:35.040Z,12.58
2019-03-15T14:01:03.109Z,12.58
2019-03-15T14:03:30.714Z,12.68
2019-03-15T14:05:58.281Z,12.81
2019-03-15T14:08:26.350Z,12.83
2019-03-15T14:10:54.157Z,12.83
2019-03-15T14:13:21.878Z,12.80
2019-03-15T14:15:49.853Z,12.78
2019-03-15T14:18:21.333Z,12.72
2019-03-15T14:20:48.463Z,12.60
2019-03-15T14:23:18.556Z,12.45
2019-03-15T14:25:50.835Z,12.35
2019-03-15T14:28:23.059Z,12.35
2019-03-15T14:30:50.079Z,12.27
2019-03-15T14:33:19.922Z,12.27
2019-03-15T14:35:49.349Z,12.27
2019-03-15T14:38:16.910Z,12.28
2019-03-15T14:40:44.437Z,12.30
2019-03-15T14:43:18.191Z,12.30
2019-03-15T14:45:43.193Z,12.32
2019-03-15T14:48:28.029Z,12.35
2019-03-15T14:50:59.197Z,12.34
2019-03-15T14:53:29.199Z,12.36
2019-03-15T14:55:59.157Z,12.31
2019-03-15T14:58:27.103Z,12.31
2019-03-15T15:00:54.710Z,12.19
2019-03-15T15:03:23.942Z,12.12
2019-03-15T15:05:53.118Z,12.03
2019-03-15T15:08:21.069Z,11.92
2019-03-15T15:10:50.343Z,11.82
2019-03-15T15:13:19.645Z,11.74
2019-03-15T15:15:47.287Z,11.69
2019-03-15T15:18:18.978Z,11.59
2019-03-15T15:20:47.168Z,11.59
2019-03-15T15:23:14.762Z,11.55
2019-03-15T15:25:43.473Z,11.52
2019-03-15T15:28:13.383Z,11.51
2019-03-15T15:30:42.865Z,11.51
2019-03-15T15:33:10.484Z,11.51
2019-03-15T15:35:41.725Z,11.51
2019-03-15T15:38:09.472Z,11.51
2019-03-15T15:40:37.031Z,11.51
2019-03-15T15:43:04.959Z,11.52
2019-03-15T15:45:32.629Z,11.52
2019-03-15T15:48:01.814Z,11.54
2019-03-15T15:50:29.790Z,11.58
2019-03-15T15:52:57.390Z,11.62
2019-03-15T15:55:28.128Z,11.62
2019-03-15T15:57:56.111Z,11.61
2019-03-15T16:00:23.711Z,11.59
2019-03-15T16:02:52.340Z,11.55
2019-03-15T16:05:20.258Z,11.52
2019-03-15T16:07:47.823Z,11.49
2019-03-15T16:10:18.614Z,11.50
2019-03-15T16:12:46.756Z,11.50
2019-03-15T16:15:14.332Z,11.48
2019-03-15T16:17:45.089Z,11.48
2019-03-15T16:20:17.711Z,11.48
2019-03-15T16:22:45.389Z,11.46
2019-03-15T16:25:15.999Z,11.46
2019-03-15T16:27:47.283Z,11.46
2019-03-15T16:30:14.835Z,11.44
2019-03-15T16:32:42.599Z,11.40
2019-03-15T16:35:20.751Z,11.40
2019-03-15T16:37:50.266Z,11.31
2019-03-15T16:40:20.932Z,11.31
2019-03-15T16:42:54.538Z,11.25
2019-03-15T16:45:22.158Z,11.22
2019-03-15T16:47:49.771Z,11.22
2019-03-15T16:50:17.621Z,11.18
2019-03-15T16:52:45.170Z,11.18
2019-03-15T16:55:15.318Z,11.17
2019-03-15T16:57:43.427Z,11.15
2019-03-15T17:00:11.046Z,11.15
2019-03-15T17:02:38.587Z,11.04
2019-03-15T17:05:06.566Z,11.04
2019-03-15T17:07:34.267Z,10.84
2019-03-15T17:10:02.627Z,10.72
2019-03-15T17:12:30.484Z,10.62
2019-03-15T17:15:00.500Z,10.56
2019-03-15T17:17:28.418Z,10.51
2019-03-15T17:19:56.466Z,10.46
2019-03-15T17:22:24.126Z,10.42
2019-03-15T17:24:51.798Z,10.39
2019-03-15T17:27:24.650Z,10.39
2019-03-15T17:29:52.394Z,10.36
2019-03-15T17:32:23.383Z,10.33
2019-03-15T17:34:51.456Z,10.31
2019-03-15T17:37:23.449Z,10.30
2019-03-15T17:39:59.877Z,10.30
2019-03-15T17:42:29.913Z,10.30
2019-03-15T17:44:59.239Z,10.32
2019-03-15T17:47:26.813Z,10.32
2019-03-15T17:49:56.829Z,10.32
2019-03-15T17:52:26.860Z,10.30
2019-03-15T17:54:54.443Z,10.24
2019-03-15T17:57:22.404Z,10.24
2019-03-15T17:59:59.325Z,10.02
2019-03-15T18:02:26.975Z,10.02
2019-03-15T18:04:54.960Z,9.91
2019-03-15T18:07:31.108Z,9.71
2019-03-15T18:09:58.703Z,9.62
2019-03-15T18:12:26.360Z,9.54
2019-03-15T18:14:54.024Z,9.54
2019-03-15T18:17:24.594Z,9.46
2019-03-15T18:19:52.149Z,9.33
2019-03-15T18:22:22.496Z,9.26
2019-03-15T18:24:50.529Z,9.26
2019-03-15T18:27:20.930Z,9.18
2019-03-15T18:29:50.798Z,9.18
2019-03-15T18:32:18.907Z,9.15
2019-03-15T18:34:46.641Z,9.13
2019-03-15T18:37:17.369Z,9.12
2019-03-15T18:39:45.048Z,9.10
2019-03-15T18:42:12.722Z,9.08
2019-03-15T18:44:40.718Z,9.08
2019-03-15T18:47:08.727Z,9.06
2019-03-15T18:49:36.368Z,9.03
2019-03-15T18:52:04.236Z,9.00
2019-03-15T18:54:34.133Z,9.01
2019-03-15T18:57:01.760Z,9.00
2019-03-15T18:59:39.348Z,8.98
2019-03-15T19:01:59.057Z,8.98
2019-03-15T19:04:32.370Z,8.97
2019-03-15T19:07:00.301Z,8.98
2019-03-15T19:09:28.067Z,8.96
2019-03-15T19:11:55.672Z,8.96
2019-03-15T19:14:54.619Z,8.96
2019-03-15T19:17:42.428Z,8.98
2019-03-15T19:23:04.615Z,8.98
2019-03-15T19:25:51.053Z,8.99
2019-03-15T19:28:18.762Z,8.99
2019-03-15T19:31:05.178Z,9.00
2019-03-15T19:33:35.347Z,9.02
2019-03-15T19:36:03.001Z,9.02
2019-03-15T19:38:49.444Z,9.02
2019-03-15T19:41:31.199Z,9.05
2019-03-15T19:43:46.667Z,9.05
2019-03-15T19:46:47.090Z,9.04
2019-03-15T19:51:55.201Z,9.02
2019-03-15T19:54:25.022Z,9.02
2019-03-15T19:57:11.380Z,9.00
2019-03-15T20:02:30.898Z,8.99
2019-03-15T20:04:58.529Z,8.99
2019-03-15T20:07:26.193Z,9.00
2019-03-15T20:10:16.062Z,9.00
2019-03-15T20:12:42.010Z,8.98
2019-03-15T20:15:09.625Z,8.98
2019-03-15T20:17:56.067Z,8.97
2019-03-15T20:20:23.773Z,8.93
2019-03-15T20:23:11.896Z,8.93
2019-03-15T20:26:12.320Z,8.94
2019-03-15T20:28:46.761Z,8.94
2019-03-15T20:31:14.538Z,8.89
2019-03-15T20:34:00.978Z,8.83
2019-03-15T20:36:28.606Z,8.85
2019-03-15T20:38:59.111Z,8.85
2019-03-15T20:41:45.468Z,8.86
2019-03-15T20:44:28.865Z,8.88
2019-03-15T20:46:42.765Z,8.88
2019-03-15T20:49:12.967Z,8.92
2019-03-15T20:51:40.554Z,8.91
2019-03-15T20:54:08.634Z,8.91
2019-03-15T20:57:07.352Z,8.92
2019-03-15T21:02:45.270Z,8.92
2019-03-15T21:05:02.364Z,8.93
2019-03-15T21:07:32.056Z,8.93
2019-03-15T21:10:00.046Z,8.93
2019-03-15T21:12:27.688Z,8.92
2019-03-15T21:14:55.744Z,8.92
2019-03-15T21:17:23.420Z,8.90
2019-03-15T21:19:56.024Z,8.92
2019-03-15T21:22:24.335Z,8.92
2019-03-15T21:24:51.888Z,8.89
2019-03-15T21:27:22.090Z,8.89
2019-03-15T21:30:08.499Z,8.89
2019-03-15T21:32:36.145Z,8.88
2019-03-15T21:35:22.596Z,8.92
2019-03-15T21:40:43.254Z,8.93
2019-03-15T21:43:10.904Z,8.94
2019-03-15T21:45:57.254Z,8.90
2019-03-15T21:48:27.431Z,8.90
2019-03-15T21:51:13.709Z,8.90
2019-03-15T21:53:41.475Z,8.92
2019-03-15T21:56:09.273Z,8.92
2019-03-15T21:58:56.691Z,8.89
2019-03-15T22:04:29.457Z,8.88
2019-03-15T22:06:57.683Z,8.87
2019-03-15T22:09:44.063Z,8.85
2019-03-15T22:12:11.848Z,8.83
2019-03-15T22:14:58.233Z,8.82
2019-03-15T22:20:21.286Z,8.82
2019-03-15T22:23:00.937Z,8.82
2019-03-15T22:25:36.995Z,8.82
2019-03-15T22:28:04.609Z,8.82
2019-03-15T22:31:16.073Z,8.82
2019-03-15T22:33:39.735Z,8.82
2019-03-15T22:36:40.174Z,8.81
2019-03-15T22:38:55.723Z,8.81
2019-03-15T22:41:42.049Z,8.80
2019-03-15T22:44:12.152Z,8.80
2019-03-15T22:46:58.499Z,8.80
2019-03-15T22:49:26.213Z,8.81
2019-03-15T22:51:53.874Z,8.81
2019-03-15T22:54:40.315Z,8.79
2019-03-15T22:57:26.763Z,8.80
2019-03-15T23:00:13.300Z,8.80
2019-03-15T23:02:59.798Z,8.81
2019-03-15T23:05:46.275Z,8.81
2019-03-15T23:11:19.606Z,8.80
2019-03-15T23:13:47.323Z,8.82
2019-03-15T23:16:33.758Z,8.87
2019-03-15T23:19:20.139Z,8.89
2019-03-15T23:21:47.804Z,8.91
2019-03-15T23:24:34.193Z,8.93
2019-03-15T23:27:20.616Z,8.94
2019-03-15T23:29:48.404Z,8.93
2019-03-15T23:32:34.842Z,8.93
2019-03-15T23:35:02.420Z,8.92
2019-03-15T23:37:50.083Z,8.90
2019-03-15T23:43:22.896Z,8.89
2019-03-15T23:45:50.595Z,8.88
2019-03-15T23:48:37.039Z,8.88
2019-03-15T23:51:25.344Z,8.88
2019-03-15T23:54:11.789Z,8.88
2019-03-15T23:56:41.909Z,8.89
2019-03-15T23:59:11.836Z,8.88
